createdAt,value
2023-04-22T00:02:03.621Z,12.80
2023-04-22T00:04:34.455Z,12.70
2023-04-22T00:07:05.507Z,12.80
2023-04-22T00:09:36.493Z,12.70
2023-04-22T00:12:11.869Z,12.70
2023-04-22T00:14:42.317Z,12.70
2023-04-22T00:17:12.675Z,12.60
2023-04-22T00:19:43.036Z,12.60
2023-04-22T00:22:13.500Z,12.60
2023-04-22T00:24:43.874Z,12.70
2023-04-22T00:27:16.872Z,12.60
2023-04-22T00:29:47.349Z,12.60
2023-04-22T00:32:17.697Z,12.60
2023-04-22T00:34:48.060Z,12.60
2023-04-22T00:37:18.510Z,12.60
2023-04-22T00:39:48.885Z,12.60
2023-04-22T00:42:21.898Z,12.50
2023-04-22T00:44:52.703Z,12.50
2023-04-22T00:47:27.045Z,12.50
2023-04-22T00:49:57.931Z,12.50
2023-04-22T00:52:28.199Z,12.50
2023-04-22T00:54:58.754Z,12.50
2023-04-22T00:57:33.708Z,12.40
2023-04-22T01:00:05.043Z,12.40
2023-04-22T01:02:35.961Z,12.40
2023-04-22T01:05:07.934Z,12.40
2023-04-22T01:07:38.693Z,12.30
2023-04-22T01:10:10.603Z,12.30
2023-04-22T01:12:43.573Z,12.30
2023-04-22T01:15:15.060Z,12.30
2023-04-22T01:17:46.200Z,12.30
2023-04-22T01:20:16.741Z,12.30
2023-04-22T01:22:49.634Z,12.20
2023-04-22T01:25:22.709Z,12.20
2023-04-22T01:27:53.610Z,12.20
2023-04-22T01:30:24.277Z,12.20
2023-04-22T01:32:54.997Z,12.10
2023-04-22T01:35:25.453Z,12.10
2023-04-22T01:37:58.032Z,12.10
2023-04-22T01:40:32.784Z,12.10
2023-04-22T01:43:04.020Z,12.00
2023-04-22T01:45:34.508Z,12.00
2023-04-22T01:48:05.012Z,12.00
2023-04-22T01:50:35.900Z,12.00
2023-04-22T01:53:06.739Z,11.90
2023-04-22T01:55:40.684Z,11.90
2023-04-22T01:58:11.034Z,11.90
2023-04-22T02:00:42.553Z,11.90
2023-04-22T02:03:14.173Z,11.90
2023-04-22T02:05:44.606Z,12.00
2023-04-22T02:08:15.924Z,11.90
2023-04-22T02:10:51.149Z,11.90
2023-04-22T02:13:21.568Z,11.90
2023-04-22T02:15:52.705Z,11.80
2023-04-22T02:18:23.108Z,11.80
2023-04-22T02:20:53.467Z,11.90
2023-04-22T02:23:24.062Z,11.90
2023-04-22T02:25:58.272Z,11.90
2023-04-22T02:28:28.723Z,11.80
2023-04-22T02:30:59.102Z,11.80
2023-04-22T02:33:29.540Z,11.80
2023-04-22T02:35:59.937Z,11.70
2023-04-22T02:38:30.801Z,11.80
2023-04-22T02:41:03.814Z,11.80
2023-04-22T02:43:34.669Z,11.80
2023-04-22T02:46:06.728Z,11.80
2023-04-22T02:48:37.269Z,11.80
2023-04-22T02:51:08.384Z,11.80
2023-04-22T02:53:38.819Z,11.70
2023-04-22T02:56:12.168Z,11.60
2023-04-22T02:58:42.685Z,11.60
2023-04-22T03:01:13.273Z,11.60
2023-04-22T03:03:44.054Z,11.60
2023-04-22T03:06:19.200Z,11.60
2023-04-22T03:08:49.566Z,11.70
2023-04-22T03:11:22.583Z,11.70
2023-04-22T03:13:53.125Z,11.80
2023-04-22T03:16:27.167Z,11.70
2023-04-22T03:18:59.737Z,11.70
2023-04-22T03:21:32.515Z,11.70
2023-04-22T03:24:03.840Z,11.70
2023-04-22T03:26:39.596Z,11.60
2023-04-22T03:29:11.040Z,11.60
2023-04-22T03:31:41.545Z,11.60
2023-04-22T03:34:12.064Z,11.60
2023-04-22T03:36:42.858Z,11.60
2023-04-22T03:39:13.334Z,11.60
2023-04-22T03:41:48.373Z,11.60
2023-04-22T03:44:19.236Z,11.50
2023-04-22T03:46:50.809Z,11.50
2023-04-22T03:49:27.478Z,11.60
2023-04-22T03:51:59.268Z,11.60
2023-04-22T03:54:30.578Z,11.60
2023-04-22T03:57:03.607Z,11.50
2023-04-22T03:59:34.067Z,11.50
2023-04-22T04:02:04.850Z,11.50
2023-04-22T04:04:35.781Z,11.50
2023-04-22T04:07:10.718Z,11.50
2023-04-22T04:09:41.530Z,11.40
2023-04-22T04:12:15.106Z,11.40
2023-04-22T04:14:48.608Z,11.40
2023-04-22T04:17:26.088Z,11.40
2023-04-22T04:19:57.577Z,11.40
2023-04-22T04:22:29.490Z,11.40
2023-04-22T04:25:03.681Z,11.40
2023-04-22T04:27:42.932Z,11.40
2023-04-22T04:30:16.560Z,11.40
2023-04-22T04:32:51.582Z,11.40
2023-04-22T04:35:22.290Z,11.40
2023-04-22T04:37:59.573Z,11.40
2023-04-22T04:40:31.686Z,11.50
2023-04-22T04:43:14.613Z,11.40
2023-04-22T04:45:56.558Z,11.50
2023-04-22T04:48:37.872Z,11.40
2023-04-22T04:51:12.789Z,11.40
2023-04-22T04:53:50.947Z,11.30
2023-04-22T04:56:21.371Z,11.40
2023-04-22T04:58:54.944Z,11.40
2023-04-22T05:01:28.427Z,11.40
2023-04-22T05:04:04.706Z,11.30
2023-04-22T05:06:35.697Z,11.40
2023-04-22T05:09:08.411Z,11.20
2023-04-22T05:11:40.063Z,11.30
2023-04-22T05:14:19.852Z,11.30
2023-04-22T05:16:51.490Z,11.50
2023-04-22T05:19:21.983Z,11.20
2023-04-22T05:21:53.454Z,11.30
2023-04-22T05:24:23.911Z,11.30
2023-04-22T05:26:55.825Z,11.20
2023-04-22T05:29:29.308Z,11.30
2023-04-22T05:31:59.926Z,11.30
2023-04-22T05:34:30.612Z,11.30
2023-04-22T05:37:01.583Z,11.30
2023-04-22T05:39:32.216Z,11.40
2023-04-22T05:42:05.282Z,11.30
2023-04-22T05:44:39.174Z,11.30
2023-04-22T05:47:10.061Z,11.30
2023-04-22T05:49:41.027Z,11.40
2023-04-22T05:52:20.769Z,11.50
2023-04-22T05:55:14.149Z,11.50
2023-04-22T05:57:44.548Z,11.50
2023-04-22T06:00:30.062Z,11.40
2023-04-22T06:03:16.254Z,11.50
2023-04-22T06:05:47.306Z,11.60
2023-04-22T06:08:18.032Z,11.60
2023-04-22T06:10:48.484Z,11.50
2023-04-22T06:13:20.269Z,11.50
2023-04-22T06:15:53.367Z,11.50
2023-04-22T06:18:23.883Z,11.60
2023-04-22T06:20:55.234Z,11.80
2023-04-22T06:23:25.960Z,11.60
2023-04-22T06:25:56.509Z,11.70
2023-04-22T06:28:27.275Z,11.80
2023-04-22T06:31:02.922Z,11.80
2023-04-22T06:33:34.004Z,11.70
2023-04-22T06:36:05.746Z,11.60
2023-04-22T06:38:37.437Z,11.80
2023-04-22T06:41:29.364Z,11.70
2023-04-22T06:44:04.527Z,11.80
2023-04-22T06:46:57.890Z,11.70
2023-04-22T06:49:45.290Z,11.80
2023-04-22T06:52:26.136Z,11.90
2023-04-22T06:55:00.353Z,11.90
2023-04-22T06:57:30.858Z,12.00
2023-04-22T07:00:01.244Z,12.00
2023-04-22T07:02:36.125Z,12.00
2023-04-22T07:05:07.062Z,12.10
2023-04-22T07:07:38.614Z,12.10
2023-04-22T07:10:10.990Z,12.10
2023-04-22T07:12:48.159Z,12.10
2023-04-22T07:15:18.609Z,12.10
2023-04-22T07:17:51.652Z,12.20
2023-04-22T07:20:22.049Z,12.20
2023-04-22T07:22:52.543Z,12.30
2023-04-22T07:25:22.900Z,12.40
2023-04-22T07:27:53.320Z,12.30
2023-04-22T07:30:23.710Z,12.50
2023-04-22T07:32:56.708Z,12.60
2023-04-22T07:35:28.873Z,12.60
2023-04-22T07:37:59.259Z,12.60
2023-04-22T07:40:29.676Z,12.60
2023-04-22T07:43:00.199Z,12.60
2023-04-22T07:45:30.707Z,12.60
2023-04-22T07:48:03.818Z,12.60
2023-04-22T07:50:34.721Z,12.70
2023-04-22T07:53:06.256Z,12.60
2023-04-22T07:55:36.808Z,12.60
2023-04-22T07:58:07.375Z,12.80
2023-04-22T08:00:38.414Z,12.80
2023-04-22T08:03:15.148Z,12.90
2023-04-22T08:05:45.714Z,12.90
2023-04-22T08:08:16.061Z,12.90
2023-04-22T08:10:46.520Z,13.00
2023-04-22T08:13:18.287Z,13.10
2023-04-22T08:15:49.065Z,13.20
2023-04-22T08:18:22.513Z,13.30
2023-04-22T08:20:53.872Z,13.30
2023-04-22T08:23:24.462Z,13.40
2023-04-22T08:25:55.079Z,13.50
2023-04-22T08:28:25.606Z,13.60
2023-04-22T08:30:56.027Z,13.70
2023-04-22T08:33:29.089Z,13.80
2023-04-22T08:35:59.500Z,13.80
2023-04-22T08:38:30.037Z,13.90
2023-04-22T08:41:01.619Z,13.90
2023-04-22T08:43:32.301Z,14.00
2023-04-22T08:46:02.815Z,14.10
2023-04-22T08:48:36.031Z,14.10
2023-04-22T08:51:07.406Z,14.10
2023-04-22T08:53:38.107Z,14.10
2023-04-22T08:56:09.981Z,14.20
2023-04-22T08:58:40.733Z,14.20
2023-04-22T09:01:11.418Z,14.30
2023-04-22T09:03:45.210Z,14.50
2023-04-22T09:06:15.925Z,14.50
2023-04-22T09:08:46.723Z,14.60
2023-04-22T09:11:17.151Z,14.60
2023-04-22T09:13:47.800Z,14.70
2023-04-22T09:16:18.460Z,14.80
2023-04-22T09:18:53.002Z,14.80
2023-04-22T09:21:23.539Z,14.90
2023-04-22T09:23:55.427Z,14.90
2023-04-22T09:26:27.334Z,15.00
2023-04-22T09:28:59.504Z,15.00
2023-04-22T09:31:31.567Z,15.10
2023-04-22T09:34:05.165Z,15.10
2023-04-22T09:36:37.952Z,15.10
2023-04-22T09:39:10.614Z,15.10
2023-04-22T09:41:42.606Z,15.00
2023-04-22T09:44:18.251Z,15.00
2023-04-22T09:46:52.453Z,14.90
2023-04-22T09:49:25.405Z,14.90
2023-04-22T09:52:00.253Z,14.80
2023-04-22T09:54:30.568Z,14.80
2023-04-22T09:57:02.372Z,14.70
2023-04-22T09:59:33.360Z,14.70
2023-04-22T10:02:07.158Z,14.70
2023-04-22T10:04:40.337Z,14.70
2023-04-22T10:07:10.741Z,14.70
2023-04-22T10:09:41.590Z,14.70
2023-04-22T10:12:13.241Z,14.70
2023-04-22T10:14:44.510Z,14.70
2023-04-22T10:17:17.184Z,14.70
2023-04-22T10:19:51.719Z,14.70
2023-04-22T10:22:22.212Z,14.70
2023-04-22T10:24:55.672Z,14.60
2023-04-22T10:27:26.336Z,14.60
2023-04-22T10:29:59.482Z,14.60
2023-04-22T10:32:33.459Z,14.60
2023-04-22T10:35:20.597Z,14.70
2023-04-22T10:37:52.905Z,14.60
2023-04-22T10:40:24.147Z,14.70
2023-04-22T10:42:56.534Z,14.70
2023-04-22T10:45:28.771Z,14.70
2023-04-22T10:48:05.860Z,14.70
2023-04-22T10:50:41.249Z,14.70
2023-04-22T10:53:41.520Z,14.80
2023-04-22T10:56:22.540Z,14.80
2023-04-22T10:58:52.977Z,14.80
2023-04-22T11:01:23.528Z,14.80
2023-04-22T11:03:54.830Z,14.80
2023-04-22T11:06:30.501Z,14.80
2023-04-22T11:09:13.162Z,14.80
2023-04-22T11:11:43.523Z,14.80
2023-04-22T11:14:14.233Z,14.80
2023-04-22T11:16:49.982Z,14.80
2023-04-22T11:19:20.630Z,14.80
2023-04-22T11:21:53.860Z,14.70
2023-04-22T11:24:24.243Z,14.80
2023-04-22T11:26:59.872Z,14.80
2023-04-22T11:29:30.352Z,14.80
2023-04-22T11:32:00.960Z,14.80
2023-04-22T11:34:33.034Z,14.80
2023-04-22T11:37:06.012Z,14.90
2023-04-22T11:39:50.229Z,14.90
2023-04-22T11:42:30.350Z,14.90
2023-04-22T11:45:00.860Z,14.90
2023-04-22T11:47:33.145Z,14.90
2023-04-22T11:50:05.396Z,14.80
2023-04-22T11:52:52.769Z,14.80
2023-04-22T11:55:30.973Z,14.80
2023-04-22T11:58:03.392Z,14.80
2023-04-22T12:00:36.926Z,14.80
2023-04-22T12:03:12.045Z,14.90
2023-04-22T12:05:46.023Z,14.90
2023-04-22T12:08:20.872Z,14.80
2023-04-22T12:10:53.936Z,14.80
2023-04-22T12:13:26.599Z,14.90
2023-04-22T12:15:59.092Z,14.80
2023-04-22T12:18:33.387Z,14.80
2023-04-22T12:21:04.464Z,14.80
2023-04-22T12:23:45.431Z,14.80
2023-04-22T12:26:16.416Z,14.90
2023-04-22T12:28:48.164Z,14.80
2023-04-22T12:31:18.861Z,14.80
2023-04-22T12:33:49.910Z,14.80
2023-04-22T12:36:21.114Z,14.80
2023-04-22T12:38:54.151Z,14.80
2023-04-22T12:41:25.152Z,14.80
2023-04-22T12:43:55.699Z,14.80
2023-04-22T12:46:26.424Z,14.90
2023-04-22T12:48:56.960Z,14.90
2023-04-22T12:51:27.521Z,14.90
2023-04-22T12:54:00.654Z,14.90
2023-04-22T12:56:31.290Z,14.90
2023-04-22T12:59:03.637Z,14.90
2023-04-22T13:01:35.903Z,15.00
2023-04-22T13:04:06.651Z,15.00
2023-04-22T13:06:37.799Z,15.00
2023-04-22T13:09:10.992Z,15.00
2023-04-22T13:11:41.546Z,15.00
2023-04-22T13:14:11.990Z,15.00
2023-04-22T13:16:42.642Z,15.00
2023-04-22T13:19:13.178Z,14.90
2023-04-22T13:21:43.625Z,15.00
2023-04-22T13:24:16.850Z,15.00
2023-04-22T13:26:47.302Z,15.10
2023-04-22T13:29:17.738Z,15.10
2023-04-22T13:31:48.309Z,15.10
2023-04-22T13:34:18.925Z,15.10
2023-04-22T13:36:49.518Z,15.10
2023-04-22T13:39:23.670Z,15.10
2023-04-22T13:41:54.202Z,15.10
2023-04-22T13:44:24.711Z,15.10
2023-04-22T13:46:55.219Z,15.10
2023-04-22T13:49:27.181Z,15.10
2023-04-22T13:51:58.072Z,15.10
2023-04-22T13:54:31.486Z,15.10
2023-04-22T13:57:03.323Z,15.10
2023-04-22T13:59:34.615Z,15.10
2023-04-22T14:02:05.155Z,15.10
2023-04-22T14:04:36.469Z,15.10
2023-04-22T14:07:06.998Z,15.10
2023-04-22T14:09:40.313Z,15.10
2023-04-22T14:12:11.958Z,15.00
2023-04-22T14:14:42.527Z,15.10
2023-04-22T14:17:12.962Z,15.10
2023-04-22T14:19:45.218Z,15.10
2023-04-22T14:22:15.972Z,15.10
2023-04-22T14:24:49.192Z,15.00
2023-04-22T14:27:19.708Z,15.00
2023-04-22T14:29:52.533Z,14.90
2023-04-22T14:32:25.405Z,14.90
2023-04-22T14:34:55.867Z,14.80
2023-04-22T14:37:26.345Z,14.80
2023-04-22T14:39:59.302Z,14.70
2023-04-22T14:42:30.286Z,14.50
2023-04-22T14:45:00.829Z,14.60
2023-04-22T14:47:31.296Z,14.50
2023-04-22T14:50:01.832Z,14.50
2023-04-22T14:52:32.292Z,14.40
2023-04-22T14:55:15.918Z,14.40
2023-04-22T14:57:54.197Z,14.30
2023-04-22T15:00:24.840Z,14.30
2023-04-22T15:02:55.788Z,14.20
2023-04-22T15:05:26.490Z,14.20
2023-04-22T15:07:58.069Z,14.10
2023-04-22T15:10:31.180Z,14.10
2023-04-22T15:13:01.765Z,14.00
2023-04-22T15:15:32.254Z,14.00
2023-04-22T15:18:02.946Z,14.00
2023-04-22T15:20:33.402Z,14.00
2023-04-22T15:23:05.097Z,13.90
2023-04-22T15:25:38.660Z,13.90
2023-04-22T15:28:09.287Z,13.90
2023-04-22T15:30:40.892Z,13.90
2023-04-22T15:33:11.395Z,13.80
2023-04-22T15:35:43.482Z,13.90
2023-04-22T15:38:13.834Z,13.80
2023-04-22T15:40:47.196Z,13.90
2023-04-22T15:43:17.643Z,13.90
2023-04-22T15:45:48.024Z,13.80
2023-04-22T15:48:18.542Z,13.70
2023-04-22T15:50:49.019Z,13.80
2023-04-22T15:53:19.672Z,13.80
2023-04-22T15:55:52.633Z,13.90
2023-04-22T15:58:23.164Z,13.90
2023-04-22T16:00:54.273Z,13.90
2023-04-22T16:03:25.824Z,13.80
2023-04-22T16:05:56.244Z,13.80
2023-04-22T16:08:26.667Z,13.80
2023-04-22T16:10:59.746Z,13.80
2023-04-22T16:13:30.399Z,13.80
2023-04-22T16:16:01.298Z,13.80
2023-04-22T16:18:31.841Z,13.80
2023-04-22T16:21:02.854Z,13.80
2023-04-22T16:23:33.809Z,13.80
2023-04-22T16:26:07.540Z,13.80
2023-04-22T16:28:37.922Z,13.80
2023-04-22T16:31:09.111Z,13.80
2023-04-22T16:33:40.526Z,13.80
2023-04-22T16:36:11.864Z,13.80
2023-04-22T16:38:42.273Z,13.70
2023-04-22T16:41:15.624Z,13.70
2023-04-22T16:43:46.085Z,13.70
2023-04-22T16:46:16.549Z,13.80
2023-04-22T16:48:47.037Z,13.80
2023-04-22T16:51:17.378Z,13.80
2023-04-22T16:53:48.121Z,13.70
2023-04-22T16:56:21.338Z,13.70
2023-04-22T16:58:51.823Z,13.70
2023-04-22T17:01:23.885Z,13.80
2023-04-22T17:03:54.507Z,13.70
2023-04-22T17:06:25.188Z,13.70
2023-04-22T17:08:55.844Z,13.60
2023-04-22T17:11:32.412Z,13.70
2023-04-22T17:14:02.874Z,13.70
2023-04-22T17:16:33.342Z,13.60
2023-04-22T17:19:03.831Z,13.50
2023-04-22T17:21:34.527Z,13.50
2023-04-22T17:24:06.188Z,13.50
2023-04-22T17:26:39.885Z,13.50
2023-04-22T17:29:10.320Z,13.30
2023-04-22T17:31:40.855Z,13.30
2023-04-22T17:34:11.354Z,13.40
2023-04-22T17:36:41.900Z,13.30
2023-04-22T17:39:12.341Z,13.30
2023-04-22T17:41:45.395Z,13.40
2023-04-22T17:44:15.854Z,13.30
2023-04-22T17:46:46.277Z,13.40
2023-04-22T17:49:16.821Z,13.30
2023-04-22T17:51:47.263Z,13.40
2023-04-22T17:54:17.687Z,13.40
2023-04-22T17:56:51.081Z,13.40
2023-04-22T17:59:21.624Z,13.40
2023-04-22T18:01:52.056Z,13.40
2023-04-22T18:04:22.528Z,13.40
2023-04-22T18:06:52.904Z,13.40
2023-04-22T18:09:23.291Z,13.40
2023-04-22T18:11:58.593Z,13.50
2023-04-22T18:14:29.254Z,13.60
2023-04-22T18:17:00.470Z,13.70
2023-04-22T18:19:31.029Z,13.70
2023-04-22T18:22:01.540Z,13.60
2023-04-22T18:24:32.076Z,13.50
2023-04-22T18:27:05.292Z,13.50
2023-04-22T18:29:35.835Z,13.50
2023-04-22T18:32:06.494Z,13.40
2023-04-22T18:34:36.977Z,13.40
2023-04-22T18:37:07.660Z,13.30
2023-04-22T18:39:39.498Z,13.30
2023-04-22T18:42:12.804Z,13.30
2023-04-22T18:44:43.708Z,13.20
2023-04-22T18:47:14.236Z,13.20
2023-04-22T18:49:45.615Z,13.10
2023-04-22T18:52:16.672Z,13.10
2023-04-22T18:54:47.210Z,13.10
2023-04-22T18:57:20.257Z,13.10
2023-04-22T18:59:51.403Z,13.10
2023-04-22T19:02:21.937Z,13.10
2023-04-22T19:04:53.870Z,13.00
2023-04-22T19:07:24.433Z,13.00
2023-04-22T19:09:54.882Z,13.00
2023-04-22T19:12:27.848Z,12.90
2023-04-22T19:14:59.928Z,12.90
2023-04-22T19:17:30.471Z,12.90
2023-04-22T19:20:01.014Z,12.90
2023-04-22T19:22:31.593Z,12.90
2023-04-22T19:25:02.864Z,12.80
2023-04-22T19:27:36.322Z,12.80
2023-04-22T19:30:07.371Z,12.80
2023-04-22T19:32:38.314Z,12.80
2023-04-22T19:35:12.678Z,12.80
2023-04-22T19:37:43.259Z,12.80
2023-04-22T19:40:17.309Z,12.80
2023-04-22T19:42:51.591Z,12.70
2023-04-22T19:45:22.180Z,12.80
2023-04-22T19:47:53.550Z,12.70
2023-04-22T19:50:24.763Z,12.60
2023-04-22T19:53:03.812Z,12.70
2023-04-22T19:55:36.436Z,12.70
2023-04-22T19:58:09.890Z,12.70
2023-04-22T20:00:40.669Z,12.60
2023-04-22T20:03:14.748Z,12.60
2023-04-22T20:05:46.908Z,12.60
2023-04-22T20:08:19.467Z,12.50
2023-04-22T20:10:51.234Z,12.50
2023-04-22T20:13:24.980Z,12.50
2023-04-22T20:15:55.828Z,12.60
2023-04-22T20:18:27.171Z,12.60
2023-04-22T20:21:00.143Z,12.60
2023-04-22T20:23:31.301Z,12.50
2023-04-22T20:26:02.985Z,12.50
2023-04-22T20:28:47.948Z,12.60
2023-04-22T20:31:22.840Z,12.50
2023-04-22T20:33:54.008Z,12.60
2023-04-22T20:36:26.438Z,12.60
2023-04-22T20:38:59.532Z,12.50
2023-04-22T20:41:30.416Z,12.50
2023-04-22T20:44:03.412Z,12.50
2023-04-22T20:46:33.828Z,12.50
2023-04-22T20:49:04.514Z,12.50
2023-04-22T20:51:35.404Z,12.50
2023-04-22T20:54:09.768Z,12.40
2023-04-22T20:56:48.132Z,12.40
2023-04-22T20:59:21.201Z,12.40
2023-04-22T21:01:53.539Z,12.40
2023-04-22T21:04:25.455Z,12.40
2023-04-22T21:06:58.568Z,12.40
2023-04-22T21:09:29.612Z,12.40
2023-04-22T21:12:01.028Z,12.40
2023-04-22T21:14:34.886Z,12.40
2023-04-22T21:17:08.096Z,12.40
2023-04-22T21:19:39.237Z,12.30
2023-04-22T21:22:10.762Z,12.30
2023-04-22T21:24:42.205Z,12.30
2023-04-22T21:27:13.397Z,12.30
2023-04-22T21:29:48.027Z,12.30
2023-04-22T21:32:20.701Z,12.30
2023-04-22T21:34:51.248Z,12.30
2023-04-22T21:37:21.689Z,12.40
2023-04-22T21:39:52.085Z,12.30
2023-04-22T21:42:22.548Z,12.30
2023-04-22T21:44:55.849Z,12.30
2023-04-22T21:47:26.286Z,12.30
2023-04-22T21:49:56.685Z,12.30
2023-04-22T21:52:27.164Z,12.30
2023-04-22T21:54:57.689Z,12.20
2023-04-22T21:57:28.305Z,12.30
2023-04-22T22:00:01.618Z,12.30
2023-04-22T22:02:32.308Z,12.30
2023-04-22T22:05:02.918Z,12.30
2023-04-22T22:07:34.758Z,12.30
2023-04-22T22:10:05.149Z,12.30
2023-04-22T22:12:35.725Z,12.30
2023-04-22T22:15:10.203Z,12.30
2023-04-22T22:17:41.012Z,12.30
2023-04-22T22:20:14.219Z,12.30
2023-04-22T22:22:46.372Z,12.30
2023-04-22T22:25:18.205Z,12.30
2023-04-22T22:27:49.522Z,12.20
2023-04-22T22:30:23.461Z,12.20
2023-04-22T22:32:53.976Z,12.20
2023-04-22T22:35:24.473Z,12.30
2023-04-22T22:37:54.994Z,12.20
2023-04-22T22:40:25.703Z,12.20
2023-04-22T22:42:56.162Z,12.20
2023-04-22T22:45:29.311Z,12.20
2023-04-22T22:47:59.797Z,12.10
2023-04-22T22:50:30.270Z,12.10
2023-04-22T22:53:00.749Z,12.10
2023-04-22T22:55:31.169Z,12.10
2023-04-22T22:58:01.506Z,12.10
2023-04-22T23:00:34.592Z,12.10
2023-04-22T23:03:05.179Z,12.10
2023-04-22T23:05:35.894Z,12.10
2023-04-22T23:08:07.100Z,12.10
2023-04-22T23:10:37.546Z,12.10
2023-04-22T23:13:07.877Z,12.10
2023-04-22T23:15:41.096Z,12.10
2023-04-22T23:18:12.741Z,12.00
2023-04-22T23:20:45.166Z,12.00
2023-04-22T23:23:18.777Z,12.10
2023-04-22T23:25:50.287Z,12.00
2023-04-22T23:28:21.836Z,12.10
2023-04-22T23:30:57.503Z,12.10
2023-04-22T23:33:29.539Z,12.10
2023-04-22T23:36:02.200Z,12.00
2023-04-22T23:38:32.789Z,12.00
2023-04-22T23:41:03.591Z,12.00
2023-04-22T23:43:34.407Z,11.90
2023-04-22T23:46:08.077Z,12.00
2023-04-22T23:48:39.187Z,12.00
2023-04-22T23:51:09.760Z,12.00
2023-04-22T23:53:41.083Z,12.00
2023-04-22T23:56:13.363Z,12.00
2023-04-22T23:58:44.880Z,11.90
